createdAt,value
2019-01-04T00:01:11.610Z,94.88
2019-01-04T00:03:43.456Z,94.30
2019-01-04T00:06:15.465Z,94.12
2019-01-04T00:08:47.701Z,94.65
2019-01-04T00:11:20.153Z,94.89
2019-01-04T00:13:52.157Z,94.61
2019-01-04T00:16:24.358Z,95.06
2019-01-04T00:18:56.347Z,95.24
2019-01-04T00:21:28.241Z,94.57
2019-01-04T00:24:00.470Z,95.51
2019-01-04T00:26:32.458Z,94.92
2019-01-04T00:29:04.433Z,94.99
2019-01-04T00:31:36.322Z,94.45
2019-01-04T00:34:08.341Z,94.78
2019-01-04T00:36:40.291Z,94.34
2019-01-04T00:39:12.266Z,94.67
2019-01-04T00:41:44.255Z,94.49
2019-01-04T00:44:16.168Z,94.03
2019-01-04T00:46:48.128Z,94.34
2019-01-04T00:49:20.157Z,93.61
2019-01-04T00:51:52.375Z,94.58
2019-01-04T00:54:24.382Z,93.91
2019-01-04T00:57:37.809Z,93.58
2019-01-04T01:01:03.098Z,93.53
2019-01-04T01:04:31.296Z,93.58
2019-01-04T01:08:18.054Z,93.91
2019-01-04T01:11:39.882Z,94.15
2019-01-04T01:15:23.051Z,94.89
2019-01-04T01:18:39.782Z,94.77
2019-01-04T01:22:09.932Z,94.86
2019-01-04T01:25:38.114Z,94.11
2019-01-04T01:29:14.969Z,93.64
2019-01-04T01:32:41.533Z,93.56
2019-01-04T01:35:53.311Z,93.90
2019-01-04T01:39:15.919Z,94.43
2019-01-04T01:42:37.085Z,94.16
2019-01-04T01:46:02.355Z,94.04
2019-01-04T01:49:08.608Z,93.54
2019-01-04T01:52:10.953Z,93.68
2019-01-04T01:54:42.915Z,93.99
2019-01-04T01:57:14.799Z,93.95
2019-01-04T01:59:46.869Z,93.79
2019-01-04T02:02:17.674Z,93.91
2019-01-04T02:04:49.790Z,93.84
2019-01-04T02:07:21.701Z,92.92
2019-01-04T02:09:53.496Z,93.84
2019-01-04T02:12:25.266Z,93.10
2019-01-04T02:14:57.140Z,93.24
2019-01-04T02:17:29.187Z,93.70
2019-01-04T02:20:01.299Z,92.92
2019-01-04T02:22:33.057Z,92.83
2019-01-04T02:25:05.427Z,92.98
2019-01-04T02:27:37.784Z,92.90
2019-01-04T02:30:10.475Z,93.12
2019-01-04T02:32:43.558Z,93.66
2019-01-04T02:35:15.345Z,93.33
2019-01-04T02:37:47.451Z,93.16
2019-01-04T02:40:19.390Z,93.54
2019-01-04T02:42:51.243Z,93.24
2019-01-04T02:45:23.064Z,93.16
2019-01-04T02:47:54.832Z,93.77
2019-01-04T02:50:26.618Z,93.62
2019-01-04T02:52:58.638Z,94.16
2019-01-04T02:55:30.429Z,93.67
2019-01-04T02:58:02.204Z,93.70
2019-01-04T03:00:34.237Z,93.79
2019-01-04T03:03:06.131Z,93.84
2019-01-04T03:05:37.959Z,93.95
2019-01-04T03:08:09.902Z,93.76
2019-01-04T03:10:41.796Z,93.33
2019-01-04T03:13:14.138Z,93.28
2019-01-04T03:15:46.073Z,93.37
2019-01-04T03:18:18.007Z,93.74
2019-01-04T03:20:49.877Z,94.19
2019-01-04T03:23:21.675Z,94.43
2019-01-04T03:25:53.575Z,94.02
2019-01-04T03:28:25.441Z,93.91
2019-01-04T03:30:57.413Z,93.74
2019-01-04T03:33:29.179Z,93.67
2019-01-04T03:36:01.040Z,93.59
2019-01-04T03:38:32.827Z,94.35
2019-01-04T03:41:04.692Z,93.61
2019-01-04T03:43:36.653Z,93.76
2019-01-04T03:46:08.596Z,93.78
2019-01-04T03:48:40.458Z,93.95
2019-01-04T03:51:12.318Z,94.25
2019-01-04T03:53:44.126Z,93.64
2019-01-04T03:56:16.049Z,93.46
2019-01-04T03:58:47.918Z,93.48
2019-01-04T04:01:19.781Z,93.65
2019-01-04T04:03:51.641Z,93.32
2019-01-04T04:06:23.484Z,93.44
2019-01-04T04:08:55.363Z,93.67
2019-01-04T04:11:27.490Z,94.74
2019-01-04T04:13:59.444Z,95.06
2019-01-04T04:16:31.489Z,95.58
2019-01-04T04:19:03.447Z,95.55
2019-01-04T04:21:35.279Z,95.41
2019-01-04T04:24:07.109Z,95.24
2019-01-04T04:26:39.040Z,94.03
2019-01-04T04:29:11.679Z,93.22
2019-01-04T04:31:43.717Z,93.41
2019-01-04T04:34:15.588Z,93.22
2019-01-04T04:36:47.525Z,93.06
2019-01-04T04:39:19.374Z,92.84
2019-01-04T04:41:51.564Z,92.53
2019-01-04T04:44:23.447Z,92.47
2019-01-04T04:46:55.223Z,92.57
2019-01-04T04:49:27.151Z,92.76
2019-01-04T04:51:59.020Z,93.02
2019-01-04T04:54:30.894Z,93.02
2019-01-04T04:57:02.672Z,93.37
2019-01-04T04:59:34.537Z,93.84
2019-01-04T05:02:06.553Z,94.21
2019-01-04T05:04:38.683Z,94.11
2019-01-04T05:07:11.789Z,93.11
2019-01-04T05:09:43.584Z,93.49
2019-01-04T05:12:15.646Z,92.65
2019-01-04T05:14:47.518Z,92.80
2019-01-04T05:17:19.309Z,92.88
2019-01-04T05:19:51.365Z,92.95
2019-01-04T05:22:23.580Z,92.98
2019-01-04T05:24:55.370Z,92.60
2019-01-04T05:27:27.214Z,92.94
2019-01-04T05:29:59.081Z,93.04
2019-01-04T05:32:30.867Z,93.03
2019-01-04T05:35:02.731Z,93.01
2019-01-04T05:37:35.486Z,92.98
2019-01-04T05:40:08.103Z,93.09
2019-01-04T05:42:39.964Z,93.25
2019-01-04T05:45:11.916Z,93.22
2019-01-04T05:47:43.795Z,93.09
2019-01-04T05:50:15.651Z,93.14
2019-01-04T05:52:47.498Z,93.56
2019-01-04T05:55:19.447Z,93.62
2019-01-04T05:57:51.576Z,93.70
2019-01-04T06:00:23.520Z,93.47
2019-01-04T06:02:55.337Z,93.36
2019-01-04T06:05:27.137Z,93.27
2019-01-04T06:07:59.930Z,93.65
2019-01-04T06:10:31.879Z,93.79
2019-01-04T06:13:03.748Z,93.55
2019-01-04T06:15:35.614Z,93.48
2019-01-04T06:18:07.735Z,93.52
2019-01-04T06:20:39.678Z,93.38
2019-01-04T06:23:11.906Z,93.29
2019-01-04T06:25:43.799Z,93.49
2019-01-04T06:28:15.857Z,93.24
2019-01-04T06:30:47.657Z,93.50
2019-01-04T06:33:19.455Z,93.42
2019-01-04T06:35:51.344Z,93.34
2019-01-04T06:38:23.152Z,93.39
2019-01-04T06:40:55.087Z,93.73
2019-01-04T06:43:26.955Z,93.91
2019-01-04T06:45:58.902Z,93.61
2019-01-04T06:48:30.830Z,93.73
2019-01-04T06:51:02.820Z,93.75
2019-01-04T06:53:34.680Z,93.62
2019-01-04T06:56:07.646Z,93.53
2019-01-04T06:58:39.592Z,93.71
2019-01-04T07:01:11.401Z,93.63
2019-01-04T07:03:43.283Z,93.65
2019-01-04T07:06:15.244Z,93.67
2019-01-04T07:08:47.111Z,94.09
2019-01-04T07:11:19.005Z,93.91
2019-01-04T07:13:50.880Z,93.68
2019-01-04T07:16:22.761Z,93.22
2019-01-04T07:18:54.760Z,93.02
2019-01-04T07:21:26.650Z,93.63
2019-01-04T07:23:58.810Z,93.82
2019-01-04T07:26:30.765Z,93.71
2019-01-04T07:29:02.629Z,93.47
2019-01-04T07:31:34.580Z,93.02
2019-01-04T07:34:06.474Z,93.20
2019-01-04T07:36:38.283Z,93.12
2019-01-04T07:39:11.148Z,93.37
2019-01-04T07:41:43.135Z,93.27
2019-01-04T07:44:15.014Z,93.00
2019-01-04T07:46:47.102Z,93.29
2019-01-04T07:49:18.995Z,93.84
2019-01-04T07:51:50.883Z,93.72
2019-01-04T07:54:22.869Z,93.55
2019-01-04T07:56:55.059Z,93.40
2019-01-04T07:59:26.990Z,93.43
2019-01-04T08:01:59.024Z,93.35
2019-01-04T08:04:30.802Z,94.44
2019-01-04T08:07:02.596Z,94.33
2019-01-04T08:09:34.374Z,94.47
2019-01-04T08:12:06.387Z,93.78
2019-01-04T08:14:38.168Z,93.70
2019-01-04T08:17:10.033Z,93.67
2019-01-04T08:19:42.136Z,93.90
2019-01-04T08:22:13.935Z,93.51
2019-01-04T08:24:45.984Z,94.19
2019-01-04T08:27:17.917Z,93.52
2019-01-04T08:29:49.774Z,93.92
2019-01-04T08:32:21.727Z,93.60
2019-01-04T08:34:53.877Z,94.07
2019-01-04T08:37:25.742Z,94.06
2019-01-04T08:39:57.898Z,93.33
2019-01-04T08:42:29.672Z,93.70
2019-01-04T08:45:01.806Z,93.43
2019-01-04T08:47:33.671Z,93.40
2019-01-04T08:50:06.586Z,93.33
2019-01-04T08:52:38.774Z,92.99
2019-01-04T08:55:27.219Z,93.13
2019-01-04T08:57:59.114Z,93.52
2019-01-04T09:00:30.875Z,93.24
2019-01-04T09:03:06.775Z,93.53
2019-01-04T09:05:38.542Z,92.78
2019-01-04T09:08:10.719Z,93.09
2019-01-04T09:10:43.500Z,92.34
2019-01-04T09:13:15.460Z,92.94
2019-01-04T09:15:47.560Z,92.88
2019-01-04T09:18:19.606Z,92.48
2019-01-04T09:20:51.454Z,92.12
2019-01-04T09:23:23.346Z,92.39
2019-01-04T09:25:56.215Z,92.54
2019-01-04T09:28:28.010Z,92.87
2019-01-04T09:30:59.858Z,92.22
2019-01-04T09:33:31.997Z,92.21
2019-01-04T09:36:03.920Z,92.20
2019-01-04T09:38:35.850Z,92.84
2019-01-04T09:42:07.857Z,92.74
2019-01-04T09:44:39.733Z,91.84
2019-01-04T09:47:11.850Z,92.41
2019-01-04T09:49:43.875Z,91.74
2019-01-04T09:52:15.720Z,92.17
2019-01-04T09:54:47.655Z,91.50
2019-01-04T09:57:23.467Z,91.24
2019-01-04T09:59:53.269Z,91.31
2019-01-04T10:02:25.201Z,90.82
2019-01-04T10:04:59.023Z,91.31
2019-01-04T10:07:30.955Z,91.00
2019-01-04T10:10:02.879Z,91.37
2019-01-04T10:12:34.656Z,91.96
2019-01-04T10:15:08.624Z,92.04
2019-01-04T10:17:40.482Z,91.41
2019-01-04T10:20:12.510Z,90.72
2019-01-04T10:22:44.355Z,90.28
2019-01-04T10:25:16.478Z,91.40
2019-01-04T10:27:48.332Z,91.03
2019-01-04T10:30:28.311Z,91.13
2019-01-04T10:33:00.780Z,90.97
2019-01-04T10:35:32.888Z,91.76
2019-01-04T10:38:04.891Z,91.53
2019-01-04T10:40:36.926Z,90.51
2019-01-04T10:43:08.865Z,90.24
2019-01-04T10:45:40.803Z,90.82
2019-01-04T10:48:12.770Z,90.27
2019-01-04T10:50:44.820Z,89.59
2019-01-04T10:53:16.770Z,89.69
2019-01-04T10:55:48.572Z,90.13
2019-01-04T10:58:20.517Z,90.43
2019-01-04T11:00:52.527Z,90.96
2019-01-04T11:03:24.374Z,89.46
2019-01-04T11:05:56.187Z,89.33
2019-01-04T11:08:28.169Z,89.92
2019-01-04T11:11:00.025Z,89.36
2019-01-04T11:13:31.947Z,89.25
2019-01-04T11:16:03.838Z,89.01
2019-01-04T11:18:35.714Z,89.00
2019-01-04T11:21:10.615Z,89.18
2019-01-04T11:24:11.137Z,88.95
2019-01-04T11:26:57.379Z,89.09
2019-01-04T11:30:31.065Z,89.07
2019-01-04T11:33:52.775Z,89.20
2019-01-04T11:37:06.838Z,89.26
2019-01-04T11:40:16.786Z,89.37
2019-01-04T11:43:36.929Z,89.57
2019-01-04T11:46:29.246Z,89.48
2019-01-04T11:50:25.372Z,88.98
2019-01-04T11:53:09.101Z,90.04
2019-01-04T11:55:40.914Z,89.53
2019-01-04T11:58:12.823Z,89.42
2019-01-04T12:00:44.762Z,88.81
2019-01-04T12:03:16.690Z,89.13
2019-01-04T12:05:48.626Z,89.20
2019-01-04T12:08:20.492Z,90.17
2019-01-04T12:10:52.439Z,90.11
2019-01-04T12:13:24.324Z,89.72
2019-01-04T12:15:56.290Z,89.63
2019-01-04T12:18:28.414Z,89.26
2019-01-04T12:21:00.623Z,89.27
2019-01-04T12:23:32.569Z,90.19
2019-01-04T12:26:04.569Z,89.27
2019-01-04T12:28:36.507Z,89.27
2019-01-04T12:31:08.445Z,89.35
2019-01-04T12:33:40.301Z,89.62
2019-01-04T12:36:12.188Z,89.34
2019-01-04T12:38:44.120Z,89.14
2019-01-04T12:41:16.078Z,89.08
2019-01-04T12:43:48.048Z,89.40
2019-01-04T12:46:20.910Z,89.20
2019-01-04T12:48:52.786Z,89.18
2019-01-04T12:51:24.731Z,88.97
2019-01-04T12:53:56.698Z,89.00
2019-01-04T12:56:28.938Z,88.80
2019-01-04T12:59:00.728Z,89.98
2019-01-04T13:01:33.103Z,89.91
2019-01-04T13:04:05.261Z,90.08
2019-01-04T13:06:37.132Z,90.37
2019-01-04T13:09:09.153Z,91.04
2019-01-04T13:11:41.024Z,90.99
2019-01-04T13:14:12.968Z,90.65
2019-01-04T13:16:45.702Z,90.71
2019-01-04T13:19:17.553Z,90.85
2019-01-04T13:21:51.076Z,89.96
2019-01-04T13:24:22.951Z,89.89
2019-01-04T13:26:55.061Z,90.26
2019-01-04T13:29:26.929Z,90.15
2019-01-04T13:31:58.796Z,90.78
2019-01-04T13:34:30.726Z,90.23
2019-01-04T13:37:02.605Z,90.49
2019-01-04T13:39:34.459Z,89.72
2019-01-04T13:42:06.425Z,89.47
2019-01-04T13:44:38.638Z,89.11
2019-01-04T13:47:11.271Z,89.21
2019-01-04T13:49:43.143Z,89.99
2019-01-04T13:52:15.392Z,89.64
2019-01-04T13:54:47.348Z,89.42
2019-01-04T13:57:19.214Z,89.57
2019-01-04T13:59:51.089Z,89.62
2019-01-04T14:02:33.007Z,89.10
2019-01-04T14:05:05.224Z,88.96
2019-01-04T14:07:37.069Z,89.13
2019-01-04T14:10:10.246Z,89.43
2019-01-04T14:12:42.028Z,89.91
2019-01-04T14:15:14.124Z,90.83
2019-01-04T14:17:45.987Z,89.61
2019-01-04T14:20:17.983Z,89.73
2019-01-04T14:22:49.925Z,89.50
2019-01-04T14:25:21.893Z,89.67
2019-01-04T14:27:53.784Z,89.19
2019-01-04T14:30:25.639Z,89.11
2019-01-04T14:32:57.409Z,89.55
2019-01-04T14:35:29.317Z,89.29
2019-01-04T14:38:01.437Z,88.92
2019-01-04T14:40:33.367Z,89.86
2019-01-04T14:43:05.541Z,90.45
2019-01-04T14:45:37.464Z,90.03
2019-01-04T14:48:09.303Z,90.30
2019-01-04T14:50:41.205Z,90.31
2019-01-04T14:53:13.160Z,89.89
2019-01-04T14:55:45.079Z,89.84
2019-01-04T14:58:17.039Z,90.10
2019-01-04T15:00:49.611Z,89.70
2019-01-04T15:03:21.512Z,90.29
2019-01-04T15:05:53.610Z,89.91
2019-01-04T15:08:25.552Z,90.35
2019-01-04T15:10:57.465Z,89.94
2019-01-04T15:13:29.272Z,90.05
2019-01-04T15:16:01.568Z,90.19
2019-01-04T15:18:33.426Z,90.89
2019-01-04T15:21:05.349Z,89.67
2019-01-04T15:23:37.131Z,89.58
2019-01-04T15:26:08.985Z,90.00
2019-01-04T15:28:40.848Z,90.09
2019-01-04T15:31:12.777Z,89.70
2019-01-04T15:33:44.656Z,89.98
2019-01-04T15:36:16.500Z,90.16
2019-01-04T15:38:48.268Z,90.71
2019-01-04T15:41:20.146Z,90.73
2019-01-04T15:43:51.994Z,90.75
2019-01-04T15:46:23.800Z,90.69
2019-01-04T15:48:55.570Z,90.87
2019-01-04T15:51:27.452Z,91.28
2019-01-04T15:53:59.322Z,91.66
2019-01-04T15:56:31.188Z,91.63
2019-01-04T15:59:03.028Z,91.53
2019-01-04T16:01:34.957Z,91.55
2019-01-04T16:04:06.800Z,92.19
2019-01-04T16:06:38.575Z,92.15
2019-01-04T16:09:11.268Z,92.68
2019-01-04T16:11:43.056Z,91.69
2019-01-04T16:14:15.043Z,91.55
2019-01-04T16:16:47.048Z,91.50
2019-01-04T16:19:18.965Z,91.46
2019-01-04T16:21:50.816Z,91.96
2019-01-04T16:24:22.692Z,91.46
2019-01-04T16:26:54.616Z,91.09
2019-01-04T16:29:26.391Z,91.34
2019-01-04T16:31:58.323Z,90.98
2019-01-04T16:34:30.249Z,90.93
2019-01-04T16:37:02.111Z,91.45
2019-01-04T16:39:33.882Z,91.28
2019-01-04T16:42:06.262Z,91.77
2019-01-04T16:44:38.137Z,91.71
2019-01-04T16:47:10.293Z,91.74
2019-01-04T16:49:42.148Z,91.65
2019-01-04T16:52:14.084Z,91.87
2019-01-04T16:54:45.924Z,91.83
2019-01-04T16:57:17.928Z,91.93
2019-01-04T16:59:49.766Z,91.52
2019-01-04T17:02:21.729Z,91.82
2019-01-04T17:04:53.651Z,91.82
2019-01-04T17:07:25.498Z,91.52
2019-01-04T17:09:57.287Z,91.35
2019-01-04T17:12:29.220Z,91.43
2019-01-04T17:15:00.988Z,91.61
2019-01-04T17:17:32.770Z,91.55
2019-01-04T17:20:04.965Z,92.27
2019-01-04T17:22:36.813Z,92.20
2019-01-04T17:25:09.162Z,92.19
2019-01-04T17:27:41.341Z,92.07
2019-01-04T17:30:13.251Z,92.01
2019-01-04T17:33:04.517Z,92.26
2019-01-04T17:35:36.701Z,92.33
2019-01-04T17:38:08.458Z,92.48
2019-01-04T17:40:40.245Z,92.39
2019-01-04T17:43:12.434Z,92.41
2019-01-04T17:45:44.402Z,92.50
2019-01-04T17:48:16.172Z,92.36
2019-01-04T17:50:48.108Z,92.55
2019-01-04T17:53:19.898Z,92.48
2019-01-04T17:55:51.763Z,92.79
2019-01-04T17:58:23.782Z,93.03
2019-01-04T18:00:55.710Z,93.17
2019-01-04T18:03:27.591Z,94.37
2019-01-04T18:05:59.360Z,93.46
2019-01-04T18:08:31.201Z,93.17
2019-01-04T18:11:02.986Z,92.78
2019-01-04T18:13:34.902Z,92.86
2019-01-04T18:16:06.842Z,93.32
2019-01-04T18:18:38.694Z,93.39
2019-01-04T18:21:11.553Z,93.01
2019-01-04T18:23:43.410Z,93.20
2019-01-04T18:26:15.342Z,93.58
2019-01-04T18:28:47.198Z,94.07
2019-01-04T18:31:19.138Z,93.63
2019-01-04T18:33:50.908Z,94.36
2019-01-04T18:36:22.892Z,94.23
2019-01-04T18:38:54.734Z,94.28
2019-01-04T18:41:26.589Z,93.71
2019-01-04T18:43:58.502Z,93.70
2019-01-04T18:46:30.479Z,93.64
2019-01-04T18:49:02.432Z,94.24
2019-01-04T18:51:34.285Z,94.14
2019-01-04T18:54:06.205Z,93.88
2019-01-04T18:56:38.152Z,93.91
2019-01-04T18:59:10.005Z,93.95
2019-01-04T19:01:41.866Z,94.40
2019-01-04T19:04:13.815Z,94.20
2019-01-04T19:06:45.762Z,93.73
2019-01-04T19:09:17.549Z,94.04
2019-01-04T19:11:49.402Z,93.78
2019-01-04T19:14:21.288Z,93.70
2019-01-04T19:16:53.203Z,93.72
2019-01-04T19:19:25.094Z,93.78
2019-01-04T19:21:57.202Z,93.57
2019-01-04T19:24:29.196Z,94.04
2019-01-04T19:27:01.186Z,94.09
2019-01-04T19:29:33.175Z,94.26
2019-01-04T19:32:05.278Z,94.26
2019-01-04T19:34:38.047Z,94.78
2019-01-04T19:37:10.209Z,94.85
2019-01-04T19:39:42.613Z,94.99
2019-01-04T19:42:14.645Z,96.04
2019-01-04T19:44:46.843Z,96.11
2019-01-04T19:47:18.850Z,96.15
2019-01-04T19:49:50.860Z,95.67
2019-01-04T19:52:23.003Z,96.00
2019-01-04T19:54:55.585Z,96.52
2019-01-04T19:57:27.588Z,96.42
2019-01-04T19:59:59.536Z,96.64
2019-01-04T20:02:31.592Z,97.10
2019-01-04T20:05:03.600Z,96.90
2019-01-04T20:08:40.187Z,97.11
2019-01-04T20:12:33.685Z,97.05
2019-01-04T20:16:23.289Z,97.14
2019-01-04T20:19:20.385Z,96.92
2019-01-04T20:22:11.108Z,96.77
2019-01-04T20:25:03.720Z,96.58
2019-01-04T20:28:09.562Z,96.40
2019-01-04T20:30:53.941Z,96.53
2019-01-04T20:33:52.654Z,96.20
2019-01-04T20:36:43.199Z,96.19
2019-01-04T20:39:31.603Z,96.14
2019-01-04T20:42:33.873Z,96.27
2019-01-04T20:45:25.105Z,96.31
2019-01-04T20:48:19.049Z,96.35
2019-01-04T20:51:16.125Z,96.15
2019-01-04T20:54:25.107Z,96.55
2019-01-04T20:57:18.811Z,96.69
2019-01-04T21:00:18.804Z,96.51
2019-01-04T21:03:09.623Z,96.47
2019-01-04T21:05:59.142Z,96.58
2019-01-04T21:08:59.163Z,96.43
2019-01-04T21:12:02.187Z,96.03
2019-01-04T21:14:55.985Z,95.87
2019-01-04T21:17:52.794Z,96.24
2019-01-04T21:20:43.583Z,96.21
2019-01-04T21:23:35.348Z,96.33
2019-01-04T21:26:24.732Z,96.17
2019-01-04T21:29:10.195Z,96.29
2019-01-04T21:32:01.031Z,95.95
2019-01-04T21:34:50.596Z,96.17
2019-01-04T21:37:39.564Z,96.10
2019-01-04T21:40:36.714Z,96.16
2019-01-04T21:43:45.906Z,96.29
2019-01-04T21:46:35.458Z,96.33
2019-01-04T21:49:33.242Z,95.95
2019-01-04T21:52:22.528Z,95.82
2019-01-04T21:55:13.326Z,95.93
2019-01-04T21:58:10.071Z,95.90
2019-01-04T22:00:56.035Z,96.04
2019-01-04T22:03:46.754Z,96.21
2019-01-04T22:06:43.546Z,96.28
2019-01-04T22:09:37.140Z,96.27
2019-01-04T22:12:39.756Z,96.17
2019-01-04T22:15:29.293Z,96.42
2019-01-04T22:18:26.513Z,96.25
2019-01-04T22:21:22.619Z,97.40
2019-01-04T22:24:30.282Z,97.65
2019-01-04T22:27:19.683Z,97.54
2019-01-04T22:30:07.527Z,97.98
2019-01-04T22:33:05.317Z,97.84
2019-01-04T22:35:58.858Z,97.73
2019-01-04T22:38:44.909Z,97.51
2019-01-04T22:41:34.392Z,97.42
2019-01-04T22:44:20.046Z,97.27
2019-01-04T22:47:10.799Z,96.91
2019-01-04T22:49:56.447Z,96.98
2019-01-04T22:52:46.035Z,97.15
2019-01-04T22:55:52.246Z,97.31
2019-01-04T22:58:38.013Z,96.90
2019-01-04T23:01:27.361Z,96.86
2019-01-04T23:04:16.804Z,97.20
2019-01-04T23:07:06.037Z,97.20
2019-01-04T23:09:55.468Z,97.33
2019-01-04T23:12:52.712Z,97.22
2019-01-04T23:15:38.373Z,97.37
2019-01-04T23:18:31.893Z,97.71
2019-01-04T23:22:07.951Z,97.66
2019-01-04T23:25:17.022Z,97.83
2019-01-04T23:28:25.920Z,98.04
2019-01-04T23:31:12.499Z,98.31
2019-01-04T23:34:02.600Z,98.09
2019-01-04T23:37:01.416Z,97.92
2019-01-04T23:40:02.413Z,97.49
2019-01-04T23:42:51.688Z,97.39
2019-01-04T23:45:37.022Z,97.82
2019-01-04T23:48:26.478Z,97.35
2019-01-04T23:51:30.519Z,97.46
2019-01-04T23:54:16.075Z,97.54
2019-01-04T23:57:06.851Z,97.38
